createdAt,value
2023-02-25T00:04:04.046Z,80.53
2023-02-25T00:09:11.277Z,80.87
2023-02-25T00:14:14.414Z,81.17
2023-02-25T00:19:17.723Z,81.97
2023-02-25T00:24:20.869Z,82.29
2023-02-25T00:29:23.824Z,83.18
2023-02-25T00:34:26.776Z,83.89
2023-02-25T00:39:42.173Z,84.53
2023-02-25T00:44:50.924Z,85.59
2023-02-25T00:49:53.666Z,86.03
2023-02-25T00:54:57.627Z,86.16
2023-02-25T01:00:01.237Z,87.26
2023-02-25T01:05:05.689Z,87.25
2023-02-25T01:10:10.794Z,87.81
2023-02-25T01:15:14.014Z,87.55
2023-02-25T01:20:20.139Z,88.10
2023-02-25T01:25:25.773Z,88.04
2023-02-25T01:30:28.730Z,87.86
2023-02-25T01:35:31.634Z,88.15
2023-02-25T01:40:34.552Z,88.30
2023-02-25T01:45:42.473Z,88.75
2023-02-25T01:51:05.255Z,88.87
2023-02-25T01:56:11.950Z,89.21
2023-02-25T02:01:18.385Z,90.00
2023-02-25T02:06:31.393Z,89.95
2023-02-25T02:11:34.501Z,90.37
2023-02-25T02:17:14.400Z,90.76
2023-02-25T02:22:38.527Z,91.01
2023-02-25T02:28:20.982Z,91.34
2023-02-25T02:34:03.592Z,91.74
2023-02-25T02:39:31.575Z,92.35
2023-02-25T02:44:53.414Z,93.69
2023-02-25T02:50:33.848Z,94.65
2023-02-25T02:55:46.073Z,94.95
2023-02-25T03:00:58.055Z,95.74
2023-02-25T03:06:00.862Z,94.32
2023-02-25T03:11:05.815Z,91.79
2023-02-25T03:16:19.807Z,89.45
2023-02-25T03:21:30.684Z,87.12
2023-02-25T03:26:34.978Z,85.48
2023-02-25T03:31:46.670Z,84.93
2023-02-25T03:37:00.779Z,84.36
2023-02-25T03:42:07.551Z,84.23
2023-02-25T03:47:12.761Z,83.46
2023-02-25T03:52:21.855Z,83.17
2023-02-25T03:57:33.911Z,82.76
2023-02-25T04:02:37.266Z,82.21
2023-02-25T04:07:40.811Z,81.86
2023-02-25T04:12:43.796Z,81.65
2023-02-25T04:17:47.288Z,81.17
2023-02-25T04:22:50.674Z,80.80
2023-02-25T04:27:53.848Z,80.39
2023-02-25T04:32:56.719Z,80.51
2023-02-25T04:37:59.655Z,80.03
2023-02-25T04:43:02.725Z,79.66
2023-02-25T04:48:06.042Z,80.17
2023-02-25T04:53:09.360Z,80.64
2023-02-25T04:58:13.132Z,81.49
2023-02-25T05:03:16.556Z,82.20
2023-02-25T05:08:19.657Z,83.01
2023-02-25T05:13:23.533Z,83.56
2023-02-25T05:18:26.482Z,84.24
2023-02-25T05:23:29.596Z,84.53
2023-02-25T05:28:33.262Z,85.25
2023-02-25T05:33:37.753Z,85.94
2023-02-25T05:38:41.522Z,86.38
2023-02-25T05:43:46.007Z,86.83
2023-02-25T05:48:49.852Z,87.15
2023-02-25T05:53:53.084Z,88.10
2023-02-25T05:58:57.185Z,88.93
2023-02-25T06:04:00.210Z,90.28
2023-02-25T06:09:06.070Z,90.81
2023-02-25T06:14:08.793Z,91.28
2023-02-25T06:19:12.294Z,92.01
2023-02-25T06:24:16.361Z,92.96
2023-02-25T06:29:19.623Z,94.51
2023-02-25T06:34:22.577Z,95.27
2023-02-25T06:39:25.700Z,95.11
2023-02-25T06:44:29.562Z,95.14
2023-02-25T06:49:32.392Z,94.45
2023-02-25T06:54:35.499Z,92.72
2023-02-25T06:59:38.436Z,91.42
2023-02-25T07:04:43.855Z,90.89
2023-02-25T07:09:47.151Z,89.87
2023-02-25T07:14:50.693Z,89.00
2023-02-25T07:19:53.550Z,87.90
2023-02-25T07:24:56.598Z,84.66
2023-02-25T07:30:01.473Z,81.61
2023-02-25T07:35:05.295Z,80.52
2023-02-25T07:40:13.067Z,81.35
2023-02-25T07:45:16.155Z,82.21
2023-02-25T07:50:19.239Z,81.88
2023-02-25T07:55:22.289Z,81.11
2023-02-25T08:00:25.333Z,79.72
2023-02-25T08:05:28.271Z,78.87
2023-02-25T08:10:31.565Z,79.22
2023-02-25T08:15:35.046Z,78.90
2023-02-25T08:20:38.607Z,78.41
2023-02-25T08:25:41.917Z,79.30
2023-02-25T08:30:45.379Z,78.26
2023-02-25T08:35:48.291Z,77.84
2023-02-25T08:40:51.344Z,77.65
2023-02-25T08:45:56.707Z,76.63
2023-02-25T08:51:10.972Z,76.44
2023-02-25T08:56:16.474Z,76.56
2023-02-25T09:01:19.719Z,76.56
2023-02-25T09:06:27.988Z,75.93
2023-02-25T09:11:32.527Z,76.02
2023-02-25T09:16:35.606Z,75.54
2023-02-25T09:21:42.894Z,75.50
2023-02-25T09:26:47.527Z,74.73
2023-02-25T09:31:51.109Z,73.29
2023-02-25T09:36:54.224Z,71.51
2023-02-25T09:42:09.562Z,72.08
2023-02-25T09:47:52.866Z,71.74
2023-02-25T09:53:16.345Z,71.13
2023-02-25T09:58:41.520Z,68.69
2023-02-25T10:03:53.416Z,67.47
2023-02-25T10:09:26.846Z,67.22
2023-02-25T10:14:45.140Z,67.43
2023-02-25T10:20:07.171Z,66.67
2023-02-25T10:25:26.740Z,63.20
2023-02-25T10:31:07.616Z,63.44
2023-02-25T10:36:17.326Z,57.10
2023-02-25T10:41:26.671Z,58.11
2023-02-25T10:47:05.200Z,55.08
2023-02-25T10:52:17.751Z,54.79
2023-02-25T10:57:28.838Z,53.48
2023-02-25T11:02:43.015Z,51.77
2023-02-25T11:07:49.706Z,50.09
2023-02-25T11:12:57.274Z,49.30
2023-02-25T11:18:27.324Z,48.32
2023-02-25T11:23:47.160Z,49.60
2023-02-25T11:28:50.963Z,49.30
2023-02-25T11:33:59.386Z,49.29
2023-02-25T11:39:17.382Z,47.51
2023-02-25T11:44:43.586Z,44.24
2023-02-25T11:49:58.514Z,44.49
2023-02-25T11:55:36.440Z,42.16
2023-02-25T12:01:14.537Z,42.59
2023-02-25T12:07:09.410Z,40.86
2023-02-25T12:12:52.005Z,41.53
2023-02-25T12:18:36.522Z,42.70
2023-02-25T12:24:10.591Z,43.92
2023-02-25T12:30:04.378Z,44.49
2023-02-25T12:35:34.387Z,44.82
2023-02-25T12:41:32.772Z,45.55
2023-02-25T12:46:49.084Z,45.05
2023-02-25T12:52:17.386Z,45.42
2023-02-25T12:57:29.656Z,45.22
2023-02-25T13:03:21.415Z,45.18
2023-02-25T13:08:51.268Z,45.48
2023-02-25T13:14:19.656Z,46.15
2023-02-25T13:19:39.575Z,46.21
2023-02-25T13:24:51.800Z,46.67
2023-02-25T13:30:47.263Z,46.33
2023-02-25T13:36:18.887Z,46.24
2023-02-25T13:41:53.386Z,47.27
2023-02-25T13:47:00.160Z,47.88
2023-02-25T13:52:24.619Z,46.19
2023-02-25T13:57:48.744Z,45.28
2023-02-25T14:03:36.012Z,44.97
2023-02-25T14:09:14.279Z,45.07
2023-02-25T14:14:45.195Z,45.32
2023-02-25T14:20:06.650Z,46.39
2023-02-25T14:25:21.023Z,45.56
2023-02-25T14:30:49.133Z,44.92
2023-02-25T14:36:13.547Z,45.40
2023-02-25T14:41:39.135Z,45.62
2023-02-25T14:46:54.798Z,46.16
2023-02-25T14:52:19.127Z,46.57
2023-02-25T14:58:00.438Z,46.41
2023-02-25T15:03:22.462Z,46.83
2023-02-25T15:08:34.151Z,47.09
2023-02-25T15:13:49.088Z,47.06
2023-02-25T15:19:08.505Z,47.15
2023-02-25T15:24:39.470Z,47.29
2023-02-25T15:29:45.500Z,47.52
2023-02-25T15:35:01.748Z,47.78
2023-02-25T15:40:16.911Z,47.90
2023-02-25T15:45:29.003Z,47.81
2023-02-25T15:50:43.730Z,48.28
2023-02-25T15:56:10.362Z,48.82
2023-02-25T16:01:29.610Z,49.60
2023-02-25T16:06:42.093Z,50.41
2023-02-25T16:11:53.664Z,51.05
2023-02-25T16:17:01.023Z,51.87
2023-02-25T16:22:18.172Z,52.67
2023-02-25T16:28:05.346Z,53.22
2023-02-25T16:33:48.368Z,54.12
2023-02-25T16:39:07.233Z,54.99
2023-02-25T16:44:17.277Z,55.57
2023-02-25T16:49:37.445Z,56.31
2023-02-25T16:54:40.779Z,56.72
2023-02-25T16:59:43.693Z,56.86
2023-02-25T17:04:54.308Z,57.96
2023-02-25T17:10:00.894Z,58.36
2023-02-25T17:15:31.865Z,58.39
2023-02-25T17:20:36.063Z,58.79
2023-02-25T17:25:44.009Z,59.10
2023-02-25T17:30:47.502Z,60.01
2023-02-25T17:35:53.907Z,60.09
2023-02-25T17:40:57.170Z,61.23
2023-02-25T17:46:03.650Z,61.34
2023-02-25T17:51:08.365Z,62.08
2023-02-25T17:56:25.127Z,63.48
2023-02-25T18:01:44.512Z,64.13
2023-02-25T18:06:47.761Z,64.73
2023-02-25T18:11:57.020Z,65.04
2023-02-25T18:17:01.143Z,65.26
2023-02-25T18:22:06.240Z,65.69
2023-02-25T18:27:41.850Z,66.33
2023-02-25T18:32:47.102Z,66.42
2023-02-25T18:37:52.959Z,67.28
2023-02-25T18:42:56.906Z,67.73
2023-02-25T18:48:03.477Z,67.90
2023-02-25T18:53:06.518Z,68.71
2023-02-25T18:58:18.121Z,70.41
2023-02-25T19:03:36.397Z,71.21
2023-02-25T19:08:39.152Z,72.20
2023-02-25T19:13:43.545Z,72.87
2023-02-25T19:18:47.500Z,73.82
2023-02-25T19:23:55.520Z,74.32
2023-02-25T19:28:58.550Z,74.96
2023-02-25T19:34:01.495Z,75.21
2023-02-25T19:39:06.307Z,75.48
2023-02-25T19:44:09.456Z,75.57
2023-02-25T19:49:12.814Z,75.69
2023-02-25T19:54:15.801Z,76.17
2023-02-25T19:59:18.656Z,76.05
2023-02-25T20:04:22.610Z,76.41
2023-02-25T20:09:25.513Z,76.66
2023-02-25T20:14:29.352Z,77.21
2023-02-25T20:19:35.323Z,77.81
2023-02-25T20:24:38.387Z,78.19
2023-02-25T20:29:41.513Z,78.18
2023-02-25T20:34:44.726Z,78.24
2023-02-25T20:39:55.605Z,78.21
2023-02-25T20:44:59.847Z,77.47
2023-02-25T20:50:05.937Z,76.97
2023-02-25T20:55:09.602Z,76.34
2023-02-25T21:00:16.695Z,75.61
2023-02-25T21:05:19.754Z,75.35
2023-02-25T21:10:23.939Z,75.12
2023-02-25T21:15:27.324Z,75.02
2023-02-25T21:20:30.342Z,74.68
2023-02-25T21:25:33.554Z,74.77
2023-02-25T21:30:36.436Z,74.60
2023-02-25T21:35:39.477Z,74.52
2023-02-25T21:40:42.603Z,74.62
2023-02-25T21:45:57.486Z,74.74
2023-02-25T21:51:01.057Z,75.06
2023-02-25T21:56:31.042Z,75.55
2023-02-25T22:01:38.038Z,75.93
2023-02-25T22:06:43.145Z,76.06
2023-02-25T22:11:46.220Z,76.18
2023-02-25T22:16:49.156Z,76.04
2023-02-25T22:21:52.305Z,76.42
2023-02-25T22:26:55.343Z,76.53
2023-02-25T22:31:58.347Z,76.96
2023-02-25T22:37:01.163Z,76.90
2023-02-25T22:42:04.088Z,77.23
2023-02-25T22:47:07.023Z,77.36
2023-02-25T22:52:10.037Z,77.01
2023-02-25T22:57:12.998Z,76.67
2023-02-25T23:02:16.565Z,76.33
2023-02-25T23:07:19.556Z,76.36
2023-02-25T23:12:22.563Z,75.70
2023-02-25T23:17:26.842Z,75.84
2023-02-25T23:22:31.876Z,75.73
2023-02-25T23:27:36.539Z,75.99
2023-02-25T23:32:42.022Z,75.93
2023-02-25T23:37:47.089Z,76.29
2023-02-25T23:42:50.247Z,76.13
2023-02-25T23:47:53.605Z,75.95
2023-02-25T23:52:56.597Z,76.04
2023-02-25T23:57:59.571Z,76.46
